createdAt,value
2019-03-22T09:09:40.858Z,41.80
2019-03-22T09:11:57.215Z,42.30
2019-03-22T09:14:23.341Z,42.30
2019-03-22T09:16:49.572Z,42.90
2019-03-22T09:19:15.597Z,43.30
2019-03-22T09:21:41.634Z,43.70
2019-03-22T09:24:07.705Z,43.70
2019-03-22T09:26:46.884Z,43.90
2019-03-22T09:29:02.006Z,43.90
2019-03-22T09:31:36.099Z,43.50
2019-03-22T09:34:06.884Z,43.80
2019-03-22T09:36:37.168Z,43.80
2019-03-22T09:39:13.511Z,43.90
2019-03-22T09:41:39.551Z,43.90
2019-03-22T09:44:05.636Z,43.80
2019-03-22T09:46:33.570Z,43.40
2019-03-22T09:49:04.263Z,43.00
2019-03-22T09:51:31.159Z,42.80
2019-03-22T09:53:57.243Z,43.10
2019-03-22T09:56:23.315Z,42.90
2019-03-22T09:58:49.327Z,42.90
2019-03-22T10:01:23.642Z,43.20
2019-03-22T10:03:43.799Z,43.40
2019-03-22T10:06:09.812Z,43.00
2019-03-22T10:08:35.877Z,43.20
2019-03-22T10:11:01.916Z,43.30
2019-03-22T10:13:27.979Z,43.70
2019-03-22T10:15:54.415Z,43.40
2019-03-22T10:18:21.049Z,43.30
2019-03-22T10:20:47.046Z,42.80
2019-03-22T10:23:13.076Z,42.10
2019-03-22T10:25:40.101Z,42.10
2019-03-22T10:28:06.144Z,41.90
2019-03-22T10:30:34.210Z,41.80
2019-03-22T10:33:00.449Z,42.30
2019-03-22T10:35:26.815Z,42.30
2019-03-22T10:38:00.327Z,41.80
2019-03-22T10:40:21.291Z,41.00
2019-03-22T10:42:47.374Z,41.20
2019-03-22T10:45:25.839Z,40.90
2019-03-22T10:47:59.806Z,41.10
2019-03-22T10:50:33.159Z,41.20
2019-03-22T10:53:03.757Z,41.60
2019-03-22T10:55:36.225Z,41.70
2019-03-22T10:58:02.363Z,42.00
2019-03-22T11:00:28.965Z,41.50
2019-03-22T11:03:09.328Z,41.10
2019-03-22T11:05:37.618Z,41.20
2019-03-22T11:08:08.270Z,41.50
2019-03-22T11:10:36.619Z,41.70
2019-03-22T11:13:04.937Z,41.80
2019-03-22T11:15:33.498Z,42.00
2019-03-22T11:18:01.841Z,41.60
2019-03-22T11:20:30.364Z,41.30
2019-03-22T11:23:00.044Z,41.50
2019-03-22T11:25:29.828Z,41.00
2019-03-22T11:28:01.694Z,40.50
2019-03-22T11:30:30.029Z,40.00
2019-03-22T11:32:58.340Z,39.40
2019-03-22T11:35:26.580Z,39.20
2019-03-22T11:37:54.844Z,39.60
2019-03-22T11:40:23.194Z,39.50
2019-03-22T11:42:51.601Z,38.30
2019-03-22T11:45:20.662Z,36.80
2019-03-22T11:47:48.963Z,36.60
2019-03-22T11:50:17.305Z,36.10
2019-03-22T11:52:45.546Z,35.80
2019-03-22T11:55:14.469Z,35.50
2019-03-22T11:57:42.715Z,34.30
2019-03-22T12:00:16.809Z,34.30
2019-03-22T12:02:45.150Z,33.20
2019-03-22T12:05:18.751Z,31.20
2019-03-22T12:07:47.002Z,28.50
2019-03-22T12:10:20.187Z,27.80
2019-03-22T12:12:48.430Z,27.90
2019-03-22T12:15:21.650Z,27.90
2019-03-22T12:17:50.122Z,28.30
2019-03-22T12:20:19.607Z,27.50
2019-03-22T12:22:47.855Z,27.20
2019-03-22T12:25:27.322Z,26.70
2019-03-22T12:27:55.569Z,24.80
2019-03-22T12:30:23.823Z,23.50
2019-03-22T12:32:52.262Z,22.50
2019-03-22T12:35:20.521Z,21.50
2019-03-22T12:37:48.774Z,20.50
2019-03-22T12:40:19.452Z,20.60
2019-03-22T12:42:49.947Z,19.80
2019-03-22T12:45:26.061Z,18.10
2019-03-22T12:47:54.318Z,17.60
2019-03-22T12:50:22.625Z,18.20
2019-03-22T12:52:50.920Z,18.60
2019-03-22T12:55:19.164Z,18.00
2019-03-22T12:57:48.619Z,17.80
2019-03-22T13:00:22.552Z,18.00
2019-03-22T13:02:50.872Z,17.80
2019-03-22T13:05:19.820Z,17.40
2019-03-22T13:07:52.216Z,16.80
2019-03-22T13:10:27.664Z,16.10
2019-03-22T13:12:56.512Z,16.60
2019-03-22T13:15:25.665Z,16.20
2019-03-22T13:17:54.480Z,16.40
2019-03-22T13:20:23.327Z,16.30
2019-03-22T13:22:52.186Z,16.50
2019-03-22T13:25:21.421Z,16.50
2019-03-22T13:27:49.733Z,17.80
2019-03-22T13:30:33.154Z,20.10
2019-03-22T13:33:06.682Z,20.30
2019-03-22T13:35:37.555Z,20.20
2019-03-22T13:38:09.678Z,20.20
2019-03-22T13:40:39.567Z,19.70
2019-03-22T13:43:10.277Z,19.50
2019-03-22T13:45:38.984Z,18.90
2019-03-22T13:48:07.248Z,18.70
2019-03-22T13:50:35.503Z,18.40
2019-03-22T13:53:03.786Z,18.80
2019-03-22T13:55:32.696Z,18.70
2019-03-22T13:58:01.606Z,18.20
2019-03-22T14:00:30.363Z,17.80
2019-03-22T14:03:02.983Z,17.60
2019-03-22T14:05:28.887Z,17.30
2019-03-22T14:07:57.845Z,16.90
2019-03-22T14:10:33.565Z,16.60
2019-03-22T14:13:03.677Z,16.80
2019-03-22T14:15:32.500Z,16.90
2019-03-22T14:18:01.344Z,17.20
2019-03-22T14:20:30.410Z,17.10
2019-03-22T14:22:59.276Z,17.30
2019-03-22T14:25:28.142Z,17.50
2019-03-22T14:27:57.268Z,17.90
2019-03-22T14:30:26.113Z,16.60
2019-03-22T14:32:55.224Z,17.00
2019-03-22T14:35:24.263Z,17.20
2019-03-22T14:37:52.518Z,17.40
2019-03-22T14:40:21.352Z,18.50
2019-03-22T14:42:50.221Z,18.60
2019-03-22T14:45:19.075Z,18.90
2019-03-22T14:47:47.912Z,19.60
2019-03-22T14:50:16.171Z,19.60
2019-03-22T14:52:44.456Z,20.00
2019-03-22T14:55:12.725Z,20.20
2019-03-22T14:57:49.123Z,19.80
2019-03-22T15:00:13.017Z,18.90
2019-03-22T15:02:44.400Z,18.30
2019-03-22T15:05:12.712Z,17.80
2019-03-22T15:07:40.973Z,17.70
2019-03-22T15:10:10.788Z,17.70
2019-03-22T15:12:40.139Z,17.30
2019-03-22T15:15:30.638Z,17.30
2019-03-22T15:18:01.131Z,17.00
2019-03-22T15:20:47.699Z,16.70
2019-03-22T15:23:21.155Z,16.20
2019-03-22T15:26:06.928Z,16.00
2019-03-22T15:28:53.701Z,15.70
2019-03-22T15:31:35.778Z,16.00
2019-03-22T15:34:06.684Z,16.30
2019-03-22T15:36:49.334Z,16.40
2019-03-22T15:39:41.609Z,17.00
2019-03-22T15:42:09.937Z,19.50
2019-03-22T15:44:39.738Z,22.10
2019-03-22T15:47:08.027Z,23.40
2019-03-22T15:49:36.292Z,24.80
2019-03-22T15:52:04.542Z,25.60
2019-03-22T15:54:35.549Z,26.30
2019-03-22T15:57:03.816Z,27.30
2019-03-22T15:59:32.061Z,27.40
2019-03-22T16:02:00.652Z,28.10
2019-03-22T16:04:29.188Z,28.60
2019-03-22T16:06:57.469Z,28.90
2019-03-22T16:09:25.867Z,29.10
2019-03-22T16:11:54.121Z,29.50
2019-03-22T16:14:22.378Z,30.20
2019-03-22T16:16:55.205Z,30.60
2019-03-22T16:19:23.461Z,31.00
2019-03-22T16:21:51.960Z,31.30
2019-03-22T16:24:20.612Z,31.70
2019-03-22T16:26:49.148Z,32.50
2019-03-22T16:29:17.382Z,32.60
2019-03-22T16:31:45.847Z,32.90
2019-03-22T16:34:14.097Z,33.20
2019-03-22T16:36:42.342Z,33.40
2019-03-22T16:39:10.603Z,33.60
2019-03-22T16:41:38.854Z,33.90
2019-03-22T16:44:07.116Z,34.40
2019-03-22T16:46:35.503Z,34.80
2019-03-22T16:49:04.044Z,35.20
2019-03-22T16:51:32.330Z,35.50
2019-03-22T16:54:01.252Z,35.60
2019-03-22T16:56:32.632Z,36.10
2019-03-22T16:59:00.883Z,36.40
2019-03-22T17:01:29.215Z,36.80
2019-03-22T17:04:04.460Z,36.90
2019-03-22T17:06:27.664Z,37.40
2019-03-22T17:08:55.983Z,37.60
2019-03-22T17:11:24.237Z,37.70
2019-03-22T17:13:52.532Z,38.00
2019-03-22T17:16:20.825Z,38.30
2019-03-22T17:18:49.099Z,38.40
2019-03-22T17:21:17.661Z,38.70
2019-03-22T17:23:48.621Z,38.70
2019-03-22T17:26:16.353Z,39.00
2019-03-22T17:28:44.623Z,39.30
2019-03-22T17:31:16.137Z,39.60
2019-03-22T17:33:44.379Z,39.80
2019-03-22T17:36:12.648Z,39.90
2019-03-22T17:38:42.550Z,40.20
2019-03-22T17:41:13.455Z,40.60
2019-03-22T17:43:41.714Z,40.80
2019-03-22T17:46:11.598Z,41.00
2019-03-22T17:48:39.850Z,41.30
2019-03-22T17:51:08.145Z,41.70
2019-03-22T17:53:40.754Z,41.70
2019-03-22T17:56:10.584Z,41.50
2019-03-22T17:58:40.663Z,41.90
2019-03-22T18:01:11.687Z,42.00
2019-03-22T18:03:40.001Z,42.20
2019-03-22T18:06:08.252Z,42.50
2019-03-22T18:08:40.377Z,42.50
2019-03-22T18:11:08.608Z,42.80
2019-03-22T18:13:36.861Z,42.90
2019-03-22T18:16:05.211Z,43.20
2019-03-22T18:18:33.461Z,43.30
2019-03-22T18:21:06.479Z,43.60
2019-03-22T18:23:35.911Z,43.60
2019-03-22T18:26:04.443Z,43.90
2019-03-22T18:28:32.709Z,43.60
2019-03-22T18:31:01.026Z,44.10
2019-03-22T18:33:29.670Z,44.20
2019-03-22T18:35:57.929Z,44.40
2019-03-22T18:38:26.213Z,44.60
2019-03-22T18:40:57.297Z,45.10
2019-03-22T18:43:25.548Z,45.10
2019-03-22T18:45:54.179Z,45.30
2019-03-22T18:48:22.425Z,46.00
2019-03-22T18:50:56.826Z,45.90
2019-03-22T18:53:20.721Z,45.60
2019-03-22T18:55:48.952Z,45.60
2019-03-22T18:58:17.205Z,46.00
2019-03-22T19:00:49.661Z,46.10
2019-03-22T19:03:22.202Z,46.40
2019-03-22T19:05:52.677Z,46.80
2019-03-22T19:08:22.799Z,46.90
2019-03-22T19:10:51.443Z,47.50
2019-03-22T19:13:19.691Z,47.80
2019-03-22T19:15:48.415Z,48.00
2019-03-22T19:18:16.723Z,48.00
2019-03-22T19:20:44.975Z,48.30
2019-03-22T19:23:13.325Z,48.30
2019-03-22T19:25:41.601Z,48.40
2019-03-22T19:28:09.911Z,48.20
2019-03-22T19:30:38.169Z,48.50
2019-03-22T19:33:06.691Z,48.50
2019-03-22T19:35:34.965Z,48.60
2019-03-22T19:38:03.241Z,48.60
2019-03-22T19:40:31.483Z,48.60
2019-03-22T19:43:01.559Z,48.80
2019-03-22T19:45:36.053Z,48.80
2019-03-22T19:48:04.348Z,48.90
2019-03-22T19:50:32.600Z,49.00
2019-03-22T19:53:00.879Z,49.10
2019-03-22T19:55:29.133Z,49.20
2019-03-22T19:57:57.771Z,49.20
2019-03-22T20:00:26.111Z,49.60
2019-03-22T20:02:54.375Z,49.60
2019-03-22T20:05:30.079Z,49.70
2019-03-22T20:07:58.358Z,49.90
2019-03-22T20:10:26.644Z,50.00
2019-03-22T20:12:55.710Z,50.00
2019-03-22T20:15:24.277Z,49.90
2019-03-22T20:17:52.903Z,49.90
2019-03-22T20:20:21.248Z,50.00
2019-03-22T20:22:49.721Z,50.00
2019-03-22T20:25:17.972Z,50.40
2019-03-22T20:27:46.244Z,50.40
2019-03-22T20:30:16.430Z,50.30
2019-03-22T20:32:44.684Z,50.50
2019-03-22T20:35:16.677Z,50.70
2019-03-22T20:37:44.871Z,50.70
2019-03-22T20:40:17.653Z,50.80
2019-03-22T20:42:46.046Z,50.60
2019-03-22T20:45:23.688Z,51.00
2019-03-22T20:47:44.384Z,51.00
2019-03-22T20:50:12.702Z,50.90
2019-03-22T20:52:41.228Z,50.90
2019-03-22T20:55:09.830Z,51.20
2019-03-22T20:57:38.362Z,51.20
2019-03-22T21:00:12.163Z,51.20
2019-03-22T21:02:40.441Z,51.40
2019-03-22T21:05:09.065Z,51.60
2019-03-22T21:07:37.434Z,51.60
2019-03-22T21:10:09.567Z,51.50
2019-03-22T21:12:45.406Z,52.30
2019-03-22T21:15:23.847Z,51.70
2019-03-22T21:17:44.149Z,51.90
2019-03-22T21:20:12.395Z,52.00
2019-03-22T21:22:44.071Z,52.10
2019-03-22T21:25:12.322Z,52.20
2019-03-22T21:27:40.584Z,52.00
2019-03-22T21:30:11.908Z,52.30
2019-03-22T21:32:45.411Z,52.30
2019-03-22T21:35:22.067Z,52.50
2019-03-22T21:37:42.555Z,52.40
2019-03-22T21:40:16.410Z,52.50
2019-03-22T21:42:44.719Z,52.60
2019-03-22T21:45:13.117Z,52.60
2019-03-22T21:47:43.006Z,52.70
2019-03-22T21:50:15.763Z,52.80
2019-03-22T21:52:44.452Z,53.00
2019-03-22T21:55:14.380Z,52.90
2019-03-22T21:57:42.655Z,53.00
2019-03-22T22:00:12.607Z,53.00
2019-03-22T22:02:40.886Z,53.00
2019-03-22T22:05:09.161Z,53.00
2019-03-22T22:07:37.440Z,53.10
2019-03-22T22:10:07.029Z,53.20
2019-03-22T22:12:35.287Z,53.30
2019-03-22T22:15:05.235Z,53.50
2019-03-22T22:17:34.092Z,53.50
2019-03-22T22:20:02.371Z,54.20
2019-03-22T22:22:30.711Z,53.50
2019-03-22T22:24:58.961Z,53.60
2019-03-22T22:27:27.207Z,53.70
2019-03-22T22:29:55.723Z,53.90
2019-03-22T22:32:43.667Z,54.60
2019-03-22T22:35:11.982Z,53.80
2019-03-22T22:37:40.234Z,53.90
2019-03-22T22:40:10.836Z,53.80
2019-03-22T22:42:39.188Z,53.80
2019-03-22T22:45:09.106Z,54.00
2019-03-22T22:47:37.433Z,54.60
2019-03-22T22:50:31.299Z,54.10
2019-03-22T22:52:59.566Z,54.00
2019-03-22T22:55:27.811Z,54.10
2019-03-22T22:57:57.814Z,54.10
2019-03-22T23:00:27.657Z,54.10
2019-03-22T23:02:55.938Z,54.30
2019-03-22T23:05:24.215Z,54.30
2019-03-22T23:07:58.258Z,54.30
2019-03-22T23:10:26.504Z,54.40
2019-03-22T23:12:55.875Z,54.50
2019-03-22T23:15:24.495Z,54.50
2019-03-22T23:17:52.747Z,54.60
2019-03-22T23:20:21.677Z,54.60
2019-03-22T23:22:57.631Z,54.90
2019-03-22T23:25:28.671Z,55.00
2019-03-22T23:28:05.411Z,54.90
2019-03-22T23:30:35.723Z,54.90
2019-03-22T23:33:03.999Z,55.10
2019-03-22T23:35:32.608Z,55.00
2019-03-22T23:38:00.958Z,54.90
2019-03-22T23:40:29.212Z,55.00
2019-03-22T23:42:57.467Z,55.10
2019-03-22T23:45:25.739Z,55.00
2019-03-22T23:47:54.062Z,54.90
2019-03-22T23:50:25.028Z,55.10
2019-03-22T23:52:53.358Z,55.30
2019-03-22T23:55:21.904Z,55.30
2019-03-22T23:57:50.238Z,55.30
